sensor_id;sensor_type;location;lat;lon;timestamp;P1;durP1;ratioP1;P2;durP2;ratioP2
45011;SDS011;63444;48.148;11.542;2023-11-22T00:02:17;8.40;;;7.23;;
45011;SDS011;63444;48.148;11.542;2023-11-22T00:04:43;10.23;;;7.80;;
45011;SDS011;63444;48.148;11.542;2023-11-22T00:07:08;11.03;;;8.23;;
45011;SDS011;63444;48.148;11.542;2023-11-22T00:09:34;9.60;;;8.50;;
45011;SDS011;63444;48.148;11.542;2023-11-22T00:12:00;10.50;;;8.70;;
45011;SDS011;63444;48.148;11.542;2023-11-22T00:14:26;10.60;;;8.37;;
45011;SDS011;63444;48.148;11.542;2023-11-22T00:16:52;9.27;;;7.87;;
45011;SDS011;63444;48.148;11.542;2023-11-22T00:19:17;10.53;;;8.20;;
45011;SDS011;63444;48.148;11.542;2023-11-22T00:21:47;11.43;;;8.47;;
45011;SDS011;63444;48.148;11.542;2023-11-22T00:24:12;9.20;;;7.67;;
45011;SDS011;63444;48.148;11.542;2023-11-22T00:26:38;9.80;;;7.80;;
45011;SDS011;63444;48.148;11.542;2023-11-22T00:29:04;9.03;;;8.07;;
45011;SDS011;63444;48.148;11.542;2023-11-22T00:31:30;12.00;;;9.57;;
45011;SDS011;63444;48.148;11.542;2023-11-22T00:33:55;11.17;;;8.90;;
45011;SDS011;63444;48.148;11.542;2023-11-22T00:36:21;9.63;;;8.37;;
45011;SDS011;63444;48.148;11.542;2023-11-22T00:38:47;10.73;;;8.50;;
45011;SDS011;63444;48.148;11.542;2023-11-22T00:41:13;12.03;;;9.00;;
45011;SDS011;63444;48.148;11.542;2023-11-22T00:43:39;13.00;;;9.40;;
45011;SDS011;63444;48.148;11.542;2023-11-22T00:46:05;10.70;;;8.27;;
45011;SDS011;63444;48.148;11.542;2023-11-22T00:48:31;11.63;;;9.13;;
45011;SDS011;63444;48.148;11.542;2023-11-22T00:50:57;9.00;;;7.73;;
45011;SDS011;63444;48.148;11.542;2023-11-22T00:53:23;9.97;;;8.17;;
45011;SDS011;63444;48.148;11.542;2023-11-22T00:55:49;11.23;;;8.30;;
45011;SDS011;63444;48.148;11.542;2023-11-22T00:58:14;9.40;;;8.10;;
45011;SDS011;63444;48.148;11.542;2023-11-22T01:00:40;9.77;;;7.33;;
45011;SDS011;63444;48.148;11.542;2023-11-22T01:03:06;8.30;;;6.83;;
45011;SDS011;63444;48.148;11.542;2023-11-22T01:05:34;11.43;;;7.77;;
45011;SDS011;63444;48.148;11.542;2023-11-22T01:07:59;10.17;;;7.73;;
45011;SDS011;63444;48.148;11.542;2023-11-22T01:10:25;9.13;;;7.77;;
45011;SDS011;63444;48.148;11.542;2023-11-22T01:12:50;9.00;;;7.80;;
45011;SDS011;63444;48.148;11.542;2023-11-22T01:15:16;10.37;;;8.23;;
45011;SDS011;63444;48.148;11.542;2023-11-22T01:17:41;9.50;;;7.57;;
45011;SDS011;63444;48.148;11.542;2023-11-22T01:20:07;7.83;;;7.07;;
45011;SDS011;63444;48.148;11.542;2023-11-22T01:22:35;9.00;;;7.83;;
45011;SDS011;63444;48.148;11.542;2023-11-22T01:25:02;11.57;;;8.10;;
45011;SDS011;63444;48.148;11.542;2023-11-22T01:27:29;8.93;;;7.90;;
45011;SDS011;63444;48.148;11.542;2023-11-22T01:29:55;7.90;;;7.10;;
45011;SDS011;63444;48.148;11.542;2023-11-22T01:32:20;9.47;;;7.60;;
45011;SDS011;63444;48.148;11.542;2023-11-22T01:34:46;8.07;;;7.20;;
45011;SDS011;63444;48.148;11.542;2023-11-22T01:37:12;7.60;;;6.87;;
45011;SDS011;63444;48.148;11.542;2023-11-22T01:39:41;10.67;;;7.47;;
45011;SDS011;63444;48.148;11.542;2023-11-22T01:42:06;8.63;;;7.37;;
45011;SDS011;63444;48.148;11.542;2023-11-22T01:44:32;11.10;;;7.90;;
45011;SDS011;63444;48.148;11.542;2023-11-22T01:46:58;9.03;;;6.73;;
45011;SDS011;63444;48.148;11.542;2023-11-22T01:49:24;7.83;;;7.00;;
45011;SDS011;63444;48.148;11.542;2023-11-22T01:51:49;8.27;;;7.07;;
45011;SDS011;63444;48.148;11.542;2023-11-22T01:54:15;8.50;;;7.40;;
45011;SDS011;63444;48.148;11.542;2023-11-22T01:56:43;8.77;;;7.97;;
45011;SDS011;63444;48.148;11.542;2023-11-22T01:59:10;12.27;;;7.80;;
45011;SDS011;63444;48.148;11.542;2023-11-22T02:01:36;8.27;;;7.10;;
45011;SDS011;63444;48.148;11.542;2023-11-22T02:04:02;7.63;;;6.80;;
45011;SDS011;63444;48.148;11.542;2023-11-22T02:06:28;7.63;;;6.90;;
45011;SDS011;63444;48.148;11.542;2023-11-22T02:08:56;7.37;;;6.67;;
45011;SDS011;63444;48.148;11.542;2023-11-22T02:11:22;6.10;;;5.53;;
45011;SDS011;63444;48.148;11.542;2023-11-22T02:13:49;5.40;;;4.90;;
45011;SDS011;63444;48.148;11.542;2023-11-22T02:16:15;5.07;;;4.27;;
45011;SDS011;63444;48.148;11.542;2023-11-22T02:18:43;4.17;;;3.50;;
45011;SDS011;63444;48.148;11.542;2023-11-22T02:21:10;3.60;;;3.30;;
45011;SDS011;63444;48.148;11.542;2023-11-22T02:23:36;3.67;;;3.37;;
45011;SDS011;63444;48.148;11.542;2023-11-22T02:26:02;4.80;;;3.43;;
45011;SDS011;63444;48.148;11.542;2023-11-22T02:28:27;4.47;;;2.83;;
45011;SDS011;63444;48.148;11.542;2023-11-22T02:30:53;2.90;;;2.60;;
45011;SDS011;63444;48.148;11.542;2023-11-22T02:33:19;3.03;;;2.60;;
45011;SDS011;63444;48.148;11.542;2023-11-22T02:35:45;2.50;;;2.27;;
45011;SDS011;63444;48.148;11.542;2023-11-22T02:38:11;2.60;;;2.40;;
45011;SDS011;63444;48.148;11.542;2023-11-22T02:40:36;2.37;;;2.17;;
45011;SDS011;63444;48.148;11.542;2023-11-22T02:43:02;2.80;;;2.60;;
45011;SDS011;63444;48.148;11.542;2023-11-22T02:45:34;2.50;;;2.30;;
45011;SDS011;63444;48.148;11.542;2023-11-22T02:47:59;2.53;;;2.33;;
45011;SDS011;63444;48.148;11.542;2023-11-22T02:50:28;3.27;;;2.97;;
45011;SDS011;63444;48.148;11.542;2023-11-22T02:52:54;2.90;;;2.60;;
45011;SDS011;63444;48.148;11.542;2023-11-22T02:55:20;3.00;;;2.70;;
45011;SDS011;63444;48.148;11.542;2023-11-22T02:57:45;2.63;;;2.43;;
45011;SDS011;63444;48.148;11.542;2023-11-22T03:00:11;2.70;;;2.50;;
45011;SDS011;63444;48.148;11.542;2023-11-22T03:02:40;2.53;;;2.33;;
45011;SDS011;63444;48.148;11.542;2023-11-22T03:05:07;2.50;;;2.30;;
45011;SDS011;63444;48.148;11.542;2023-11-22T03:07:34;2.37;;;2.17;;
45011;SDS011;63444;48.148;11.542;2023-11-22T03:10:00;2.60;;;2.40;;
45011;SDS011;63444;48.148;11.542;2023-11-22T03:12:27;2.33;;;2.13;;
45011;SDS011;63444;48.148;11.542;2023-11-22T03:14:52;2.60;;;2.20;;
45011;SDS011;63444;48.148;11.542;2023-11-22T03:17:23;2.43;;;2.23;;
45011;SDS011;63444;48.148;11.542;2023-11-22T03:19:49;3.13;;;2.83;;
45011;SDS011;63444;48.148;11.542;2023-11-22T03:22:15;2.63;;;2.43;;
45011;SDS011;63444;48.148;11.542;2023-11-22T03:24:40;2.80;;;2.60;;
45011;SDS011;63444;48.148;11.542;2023-11-22T03:27:06;2.90;;;2.70;;
45011;SDS011;63444;48.148;11.542;2023-11-22T03:29:32;2.90;;;2.70;;
45011;SDS011;63444;48.148;11.542;2023-11-22T03:31:58;2.90;;;2.70;;
45011;SDS011;63444;48.148;11.542;2023-11-22T03:34:24;3.23;;;3.00;;
45011;SDS011;63444;48.148;11.542;2023-11-22T03:36:49;3.33;;;3.03;;
45011;SDS011;63444;48.148;11.542;2023-11-22T03:39:15;3.30;;;3.00;;
45011;SDS011;63444;48.148;11.542;2023-11-22T03:41:41;3.10;;;2.90;;
45011;SDS011;63444;48.148;11.542;2023-11-22T03:44:07;3.20;;;2.90;;
45011;SDS011;63444;48.148;11.542;2023-11-22T03:46:34;3.30;;;3.00;;
45011;SDS011;63444;48.148;11.542;2023-11-22T03:49:01;3.63;;;3.30;;
45011;SDS011;63444;48.148;11.542;2023-11-22T03:51:31;4.23;;;3.70;;
45011;SDS011;63444;48.148;11.542;2023-11-22T03:53:57;3.60;;;3.27;;
45011;SDS011;63444;48.148;11.542;2023-11-22T03:56:23;3.27;;;3.00;;
45011;SDS011;63444;48.148;11.542;2023-11-22T03:58:48;4.57;;;3.47;;
45011;SDS011;63444;48.148;11.542;2023-11-22T04:01:14;3.30;;;3.00;;
45011;SDS011;63444;48.148;11.542;2023-11-22T04:03:41;3.40;;;3.10;;
45011;SDS011;63444;48.148;11.542;2023-11-22T04:06:07;3.50;;;3.20;;
45011;SDS011;63444;48.148;11.542;2023-11-22T04:08:32;3.50;;;3.20;;
45011;SDS011;63444;48.148;11.542;2023-11-22T04:10:58;3.33;;;3.03;;
45011;SDS011;63444;48.148;11.542;2023-11-22T04:13:23;3.60;;;3.30;;
45011;SDS011;63444;48.148;11.542;2023-11-22T04:15:50;3.50;;;3.20;;
45011;SDS011;63444;48.148;11.542;2023-11-22T04:18:16;4.57;;;3.23;;
45011;SDS011;63444;48.148;11.542;2023-11-22T04:20:41;3.70;;;3.40;;
45011;SDS011;63444;48.148;11.542;2023-11-22T04:23:07;3.77;;;3.40;;
45011;SDS011;63444;48.148;11.542;2023-11-22T04:25:35;3.10;;;2.90;;
45011;SDS011;63444;48.148;11.542;2023-11-22T04:28:01;3.40;;;3.10;;
45011;SDS011;63444;48.148;11.542;2023-11-22T04:30:27;3.40;;;3.10;;
45011;SDS011;63444;48.148;11.542;2023-11-22T04:32:53;4.50;;;3.33;;
45011;SDS011;63444;48.148;11.542;2023-11-22T04:35:18;3.13;;;2.83;;
45011;SDS011;63444;48.148;11.542;2023-11-22T04:37:44;3.93;;;3.40;;
45011;SDS011;63444;48.148;11.542;2023-11-22T04:40:10;3.23;;;2.93;;
45011;SDS011;63444;48.148;11.542;2023-11-22T04:42:36;3.90;;;3.23;;
45011;SDS011;63444;48.148;11.542;2023-11-22T04:45:03;3.70;;;3.00;;
45011;SDS011;63444;48.148;11.542;2023-11-22T04:47:29;3.47;;;3.10;;
45011;SDS011;63444;48.148;11.542;2023-11-22T04:49:54;3.30;;;3.00;;
45011;SDS011;63444;48.148;11.542;2023-11-22T04:52:20;2.80;;;2.60;;
45011;SDS011;63444;48.148;11.542;2023-11-22T04:54:45;3.00;;;2.77;;
45011;SDS011;63444;48.148;11.542;2023-11-22T04:57:11;3.13;;;2.83;;
45011;SDS011;63444;48.148;11.542;2023-11-22T04:59:37;3.00;;;2.70;;
45011;SDS011;63444;48.148;11.542;2023-11-22T05:02:03;2.80;;;2.60;;
45011;SDS011;63444;48.148;11.542;2023-11-22T05:04:29;3.03;;;2.73;;
45011;SDS011;63444;48.148;11.542;2023-11-22T05:06:55;2.93;;;2.70;;
45011;SDS011;63444;48.148;11.542;2023-11-22T05:09:21;3.00;;;2.70;;
45011;SDS011;63444;48.148;11.542;2023-11-22T05:11:47;3.30;;;3.00;;
45011;SDS011;63444;48.148;11.542;2023-11-22T05:14:12;2.97;;;2.77;;
45011;SDS011;63444;48.148;11.542;2023-11-22T05:16:38;3.30;;;3.00;;
45011;SDS011;63444;48.148;11.542;2023-11-22T05:19:04;3.60;;;3.30;;
45011;SDS011;63444;48.148;11.542;2023-11-22T05:21:30;3.73;;;3.20;;
45011;SDS011;63444;48.148;11.542;2023-11-22T05:23:57;3.13;;;2.83;;
45011;SDS011;63444;48.148;11.542;2023-11-22T05:26:23;4.40;;;3.40;;
45011;SDS011;63444;48.148;11.542;2023-11-22T05:28:48;3.43;;;3.13;;
45011;SDS011;63444;48.148;11.542;2023-11-22T05:31:14;3.53;;;3.10;;
45011;SDS011;63444;48.148;11.542;2023-11-22T05:33:40;2.93;;;2.67;;
45011;SDS011;63444;48.148;11.542;2023-11-22T05:36:08;2.80;;;2.60;;
45011;SDS011;63444;48.148;11.542;2023-11-22T05:38:35;2.30;;;2.10;;
45011;SDS011;63444;48.148;11.542;2023-11-22T05:41:02;2.73;;;2.53;;
45011;SDS011;63444;48.148;11.542;2023-11-22T05:43:27;2.80;;;2.60;;
45011;SDS011;63444;48.148;11.542;2023-11-22T05:45:53;2.50;;;2.30;;
45011;SDS011;63444;48.148;11.542;2023-11-22T05:48:19;2.70;;;2.50;;
45011;SDS011;63444;48.148;11.542;2023-11-22T05:50:45;3.07;;;2.80;;
45011;SDS011;63444;48.148;11.542;2023-11-22T05:53:11;2.93;;;2.73;;
45011;SDS011;63444;48.148;11.542;2023-11-22T05:55:37;3.40;;;3.10;;
45011;SDS011;63444;48.148;11.542;2023-11-22T05:58:03;3.40;;;3.10;;
45011;SDS011;63444;48.148;11.542;2023-11-22T06:00:29;2.80;;;2.60;;
45011;SDS011;63444;48.148;11.542;2023-11-22T06:02:54;2.90;;;2.70;;
45011;SDS011;63444;48.148;11.542;2023-11-22T06:05:20;2.70;;;2.50;;
45011;SDS011;63444;48.148;11.542;2023-11-22T06:07:46;2.87;;;2.67;;
45011;SDS011;63444;48.148;11.542;2023-11-22T06:10:15;3.10;;;2.80;;
45011;SDS011;63444;48.148;11.542;2023-11-22T06:12:40;3.87;;;3.10;;
45011;SDS011;63444;48.148;11.542;2023-11-22T06:15:06;3.47;;;3.17;;
45011;SDS011;63444;48.148;11.542;2023-11-22T06:17:33;3.30;;;3.00;;
45011;SDS011;63444;48.148;11.542;2023-11-22T06:19:58;3.23;;;2.93;;
45011;SDS011;63444;48.148;11.542;2023-11-22T06:22:24;4.20;;;3.03;;
45011;SDS011;63444;48.148;11.542;2023-11-22T06:24:49;3.10;;;2.80;;
45011;SDS011;63444;48.148;11.542;2023-11-22T06:27:15;3.40;;;3.10;;
45011;SDS011;63444;48.148;11.542;2023-11-22T06:29:41;4.67;;;4.17;;
45011;SDS011;63444;48.148;11.542;2023-11-22T06:32:09;5.33;;;4.17;;
45011;SDS011;63444;48.148;11.542;2023-11-22T06:34:35;4.60;;;4.10;;
45011;SDS011;63444;48.148;11.542;2023-11-22T06:37:02;4.53;;;4.13;;
45011;SDS011;63444;48.148;11.542;2023-11-22T06:39:28;5.73;;;5.13;;
45011;SDS011;63444;48.148;11.542;2023-11-22T06:41:53;6.57;;;5.03;;
45011;SDS011;63444;48.148;11.542;2023-11-22T06:44:19;6.77;;;6.07;;
45011;SDS011;63444;48.148;11.542;2023-11-22T06:46:44;6.37;;;5.77;;
45011;SDS011;63444;48.148;11.542;2023-11-22T06:49:10;7.37;;;6.30;;
45011;SDS011;63444;48.148;11.542;2023-11-22T06:51:35;6.47;;;5.87;;
45011;SDS011;63444;48.148;11.542;2023-11-22T06:54:02;5.60;;;5.00;;
45011;SDS011;63444;48.148;11.542;2023-11-22T06:56:28;5.60;;;5.10;;
45011;SDS011;63444;48.148;11.542;2023-11-22T06:58:54;5.67;;;5.07;;
45011;SDS011;63444;48.148;11.542;2023-11-22T07:01:22;9.90;;;5.10;;
45011;SDS011;63444;48.148;11.542;2023-11-22T07:03:50;4.87;;;4.33;;
45011;SDS011;63444;48.148;11.542;2023-11-22T07:06:17;5.40;;;4.90;;
45011;SDS011;63444;48.148;11.542;2023-11-22T07:08:44;4.33;;;3.93;;
45011;SDS011;63444;48.148;11.542;2023-11-22T07:11:10;4.77;;;4.27;;
45011;SDS011;63444;48.148;11.542;2023-11-22T07:13:36;5.50;;;4.83;;
45011;SDS011;63444;48.148;11.542;2023-11-22T07:16:03;5.43;;;4.93;;
45011;SDS011;63444;48.148;11.542;2023-11-22T07:18:29;4.63;;;4.23;;
45011;SDS011;63444;48.148;11.542;2023-11-22T07:20:58;4.50;;;4.00;;
45011;SDS011;63444;48.148;11.542;2023-11-22T07:23:24;4.53;;;4.10;;
45011;SDS011;63444;48.148;11.542;2023-11-22T07:25:54;8.57;;;4.17;;
45011;SDS011;63444;48.148;11.542;2023-11-22T07:28:19;4.70;;;4.30;;
45011;SDS011;63444;48.148;11.542;2023-11-22T07:30:45;5.93;;;5.07;;
45011;SDS011;63444;48.148;11.542;2023-11-22T07:33:13;4.90;;;4.50;;
45011;SDS011;63444;48.148;11.542;2023-11-22T07:35:40;5.17;;;4.77;;
45011;SDS011;63444;48.148;11.542;2023-11-22T07:38:05;5.37;;;4.87;;
45011;SDS011;63444;48.148;11.542;2023-11-22T07:40:33;5.17;;;4.43;;
45011;SDS011;63444;48.148;11.542;2023-11-22T07:42:59;5.00;;;4.53;;
45011;SDS011;63444;48.148;11.542;2023-11-22T07:45:28;5.27;;;4.43;;
45011;SDS011;63444;48.148;11.542;2023-11-22T07:47:53;7.50;;;5.10;;
45011;SDS011;63444;48.148;11.542;2023-11-22T07:50:22;5.40;;;4.70;;
45011;SDS011;63444;48.148;11.542;2023-11-22T07:52:49;7.00;;;5.60;;
45011;SDS011;63444;48.148;11.542;2023-11-22T07:55:15;5.70;;;4.60;;
45011;SDS011;63444;48.148;11.542;2023-11-22T07:57:43;5.90;;;5.30;;
45011;SDS011;63444;48.148;11.542;2023-11-22T08:00:09;5.43;;;4.93;;
45011;SDS011;63444;48.148;11.542;2023-11-22T08:02:36;5.93;;;5.20;;
45011;SDS011;63444;48.148;11.542;2023-11-22T08:05:04;8.03;;;5.33;;
45011;SDS011;63444;48.148;11.542;2023-11-22T08:07:33;6.10;;;5.30;;
45011;SDS011;63444;48.148;11.542;2023-11-22T08:10:00;7.37;;;5.73;;
45011;SDS011;63444;48.148;11.542;2023-11-22T08:12:34;8.20;;;5.30;;
45011;SDS011;63444;48.148;11.542;2023-11-22T08:15:03;6.23;;;5.00;;
45011;SDS011;63444;48.148;11.542;2023-11-22T08:17:29;5.90;;;5.40;;
45011;SDS011;63444;48.148;11.542;2023-11-22T08:19:57;7.37;;;5.60;;
45011;SDS011;63444;48.148;11.542;2023-11-22T08:22:24;8.80;;;5.97;;
45011;SDS011;63444;48.148;11.542;2023-11-22T08:24:52;7.53;;;6.40;;
45011;SDS011;63444;48.148;11.542;2023-11-22T08:27:18;7.20;;;6.00;;
45011;SDS011;63444;48.148;11.542;2023-11-22T08:29:44;6.10;;;5.50;;
45011;SDS011;63444;48.148;11.542;2023-11-22T08:32:12;6.50;;;5.43;;
45011;SDS011;63444;48.148;11.542;2023-11-22T08:34:38;9.87;;;8.00;;
45011;SDS011;63444;48.148;11.542;2023-11-22T08:37:03;6.90;;;5.67;;
45011;SDS011;63444;48.148;11.542;2023-11-22T08:39:29;8.47;;;6.20;;
45011;SDS011;63444;48.148;11.542;2023-11-22T08:41:54;8.37;;;5.47;;
45011;SDS011;63444;48.148;11.542;2023-11-22T08:44:20;5.83;;;5.33;;
45011;SDS011;63444;48.148;11.542;2023-11-22T08:46:46;7.00;;;5.67;;
45011;SDS011;63444;48.148;11.542;2023-11-22T08:49:12;6.07;;;5.23;;
45011;SDS011;63444;48.148;11.542;2023-11-22T08:51:38;6.00;;;5.07;;
45011;SDS011;63444;48.148;11.542;2023-11-22T08:54:03;5.43;;;4.93;;
45011;SDS011;63444;48.148;11.542;2023-11-22T08:56:29;6.00;;;5.40;;
45011;SDS011;63444;48.148;11.542;2023-11-22T08:58:55;6.50;;;5.90;;
45011;SDS011;63444;48.148;11.542;2023-11-22T09:01:20;6.53;;;5.90;;
45011;SDS011;63444;48.148;11.542;2023-11-22T09:03:46;5.83;;;5.20;;
45011;SDS011;63444;48.148;11.542;2023-11-22T09:06:12;5.50;;;5.00;;
45011;SDS011;63444;48.148;11.542;2023-11-22T09:08:38;6.20;;;5.30;;
45011;SDS011;63444;48.148;11.542;2023-11-22T09:11:03;5.63;;;5.13;;
45011;SDS011;63444;48.148;11.542;2023-11-22T09:13:31;6.90;;;5.70;;
45011;SDS011;63444;48.148;11.542;2023-11-22T09:15:57;6.60;;;5.57;;
45011;SDS011;63444;48.148;11.542;2023-11-22T09:18:23;6.57;;;5.50;;
45011;SDS011;63444;48.148;11.542;2023-11-22T09:20:48;5.40;;;4.90;;
45011;SDS011;63444;48.148;11.542;2023-11-22T09:23:14;5.20;;;4.70;;
45011;SDS011;63444;48.148;11.542;2023-11-22T09:25:40;5.27;;;4.77;;
45011;SDS011;63444;48.148;11.542;2023-11-22T09:28:05;5.60;;;4.97;;
45011;SDS011;63444;48.148;11.542;2023-11-22T09:30:32;5.17;;;4.77;;
45011;SDS011;63444;48.148;11.542;2023-11-22T09:33:11;5.40;;;4.90;;
45011;SDS011;63444;48.148;11.542;2023-11-22T09:35:39;5.37;;;4.87;;
45011;SDS011;63444;48.148;11.542;2023-11-22T09:38:06;5.70;;;4.83;;
45011;SDS011;63444;48.148;11.542;2023-11-22T09:40:38;5.20;;;4.70;;
45011;SDS011;63444;48.148;11.542;2023-11-22T09:43:06;5.30;;;4.80;;
45011;SDS011;63444;48.148;11.542;2023-11-22T09:45:32;5.13;;;4.63;;
45011;SDS011;63444;48.148;11.542;2023-11-22T09:47:59;5.60;;;5.10;;
45011;SDS011;63444;48.148;11.542;2023-11-22T09:50:40;5.03;;;4.53;;
45011;SDS011;63444;48.148;11.542;2023-11-22T09:56:10;4.67;;;4.20;;
45011;SDS011;63444;48.148;11.542;2023-11-22T09:58:39;6.67;;;5.23;;
45011;SDS011;63444;48.148;11.542;2023-11-22T10:01:09;5.17;;;4.67;;
45011;SDS011;63444;48.148;11.542;2023-11-22T10:03:36;5.10;;;4.60;;
45011;SDS011;63444;48.148;11.542;2023-11-22T10:06:02;5.03;;;4.53;;
45011;SDS011;63444;48.148;11.542;2023-11-22T10:08:29;4.23;;;3.83;;
45011;SDS011;63444;48.148;11.542;2023-11-22T10:10:56;5.10;;;4.20;;
45011;SDS011;63444;48.148;11.542;2023-11-22T10:13:22;4.60;;;4.20;;
45011;SDS011;63444;48.148;11.542;2023-11-22T10:15:48;6.03;;;4.40;;
45011;SDS011;63444;48.148;11.542;2023-11-22T10:18:15;4.63;;;4.23;;
45011;SDS011;63444;48.148;11.542;2023-11-22T10:20:43;4.93;;;4.43;;
45011;SDS011;63444;48.148;11.542;2023-11-22T10:23:15;4.23;;;3.93;;
45011;SDS011;63444;48.148;11.542;2023-11-22T10:25:51;4.20;;;3.80;;
45011;SDS011;63444;48.148;11.542;2023-11-22T10:30:47;5.30;;;4.53;;
45011;SDS011;63444;48.148;11.542;2023-11-22T10:33:17;4.17;;;3.70;;
45011;SDS011;63444;48.148;11.542;2023-11-22T10:35:47;5.63;;;3.90;;
45011;SDS011;63444;48.148;11.542;2023-11-22T10:38:18;6.17;;;4.27;;
45011;SDS011;63444;48.148;11.542;2023-11-22T10:40:45;3.87;;;3.47;;
45011;SDS011;63444;48.148;11.542;2023-11-22T10:43:13;4.67;;;4.20;;
45011;SDS011;63444;48.148;11.542;2023-11-22T10:45:42;5.10;;;4.10;;
45011;SDS011;63444;48.148;11.542;2023-11-22T10:48:12;5.30;;;3.53;;
45011;SDS011;63444;48.148;11.542;2023-11-22T10:50:41;4.37;;;3.97;;
45011;SDS011;63444;48.148;11.542;2023-11-22T10:53:15;4.23;;;3.83;;
45011;SDS011;63444;48.148;11.542;2023-11-22T10:55:45;4.07;;;3.67;;
45011;SDS011;63444;48.148;11.542;2023-11-22T10:58:15;4.23;;;3.83;;
45011;SDS011;63444;48.148;11.542;2023-11-22T11:00:42;4.40;;;3.47;;
45011;SDS011;63444;48.148;11.542;2023-11-22T11:03:14;4.40;;;3.97;;
45011;SDS011;63444;48.148;11.542;2023-11-22T11:05:43;4.00;;;3.60;;
45011;SDS011;63444;48.148;11.542;2023-11-22T11:08:15;3.90;;;3.60;;
45011;SDS011;63444;48.148;11.542;2023-11-22T11:10:43;3.93;;;3.40;;
45011;SDS011;63444;48.148;11.542;2023-11-22T11:13:10;5.43;;;4.40;;
45011;SDS011;63444;48.148;11.542;2023-11-22T11:15:40;5.00;;;4.50;;
45011;SDS011;63444;48.148;11.542;2023-11-22T11:18:11;6.70;;;6.00;;
45011;SDS011;63444;48.148;11.542;2023-11-22T11:20:59;9.07;;;7.60;;
45011;SDS011;63444;48.148;11.542;2023-11-22T11:23:37;5.27;;;4.77;;
45011;SDS011;63444;48.148;11.542;2023-11-22T11:26:09;4.53;;;3.90;;
45011;SDS011;63444;48.148;11.542;2023-11-22T11:28:43;4.20;;;3.80;;
45011;SDS011;63444;48.148;11.542;2023-11-22T11:31:10;3.70;;;3.40;;
45011;SDS011;63444;48.148;11.542;2023-11-22T11:36:32;3.40;;;3.10;;
45011;SDS011;63444;48.148;11.542;2023-11-22T11:39:00;10.97;;;4.20;;
45011;SDS011;63444;48.148;11.542;2023-11-22T11:41:32;9.27;;;3.80;;
45011;SDS011;63444;48.148;11.542;2023-11-22T11:44:02;4.97;;;4.10;;
45011;SDS011;63444;48.148;11.542;2023-11-22T11:46:32;3.70;;;3.40;;
45011;SDS011;63444;48.148;11.542;2023-11-22T11:48:58;3.90;;;3.50;;
45011;SDS011;63444;48.148;11.542;2023-11-22T11:51:24;3.80;;;3.50;;
45011;SDS011;63444;48.148;11.542;2023-11-22T11:53:54;3.87;;;3.47;;
45011;SDS011;63444;48.148;11.542;2023-11-22T11:56:20;3.60;;;3.30;;
45011;SDS011;63444;48.148;11.542;2023-11-22T11:58:47;3.33;;;3.03;;
45011;SDS011;63444;48.148;11.542;2023-11-22T12:01:15;4.20;;;3.80;;
45011;SDS011;63444;48.148;11.542;2023-11-22T12:03:41;4.13;;;3.50;;
45011;SDS011;63444;48.148;11.542;2023-11-22T12:06:08;3.50;;;3.20;;
45011;SDS011;63444;48.148;11.542;2023-11-22T12:08:34;5.43;;;2.90;;
45011;SDS011;63444;48.148;11.542;2023-11-22T12:11:02;3.70;;;3.40;;
45011;SDS011;63444;48.148;11.542;2023-11-22T12:13:30;3.87;;;3.53;;
45011;SDS011;63444;48.148;11.542;2023-11-22T12:15:56;3.50;;;3.20;;
45011;SDS011;63444;48.148;11.542;2023-11-22T12:18:22;3.40;;;3.20;;
45011;SDS011;63444;48.148;11.542;2023-11-22T12:20:58;3.70;;;3.40;;
45011;SDS011;63444;48.148;11.542;2023-11-22T12:23:24;4.67;;;3.63;;
45011;SDS011;63444;48.148;11.542;2023-11-22T12:25:55;6.67;;;3.97;;
45011;SDS011;63444;48.148;11.542;2023-11-22T12:28:29;4.07;;;3.47;;
45011;SDS011;63444;48.148;11.542;2023-11-22T12:30:55;3.67;;;3.37;;
45011;SDS011;63444;48.148;11.542;2023-11-22T12:33:34;4.70;;;4.17;;
45011;SDS011;63444;48.148;11.542;2023-11-22T12:36:04;4.10;;;3.70;;
45011;SDS011;63444;48.148;11.542;2023-11-22T12:38:31;4.43;;;4.03;;
45011;SDS011;63444;48.148;11.542;2023-11-22T12:40:57;4.23;;;3.83;;
45011;SDS011;63444;48.148;11.542;2023-11-22T12:43:23;5.27;;;4.07;;
45011;SDS011;63444;48.148;11.542;2023-11-22T12:46:01;5.03;;;3.60;;
45011;SDS011;63444;48.148;11.542;2023-11-22T12:48:28;4.87;;;4.00;;
45011;SDS011;63444;48.148;11.542;2023-11-22T12:50:58;4.63;;;3.80;;
45011;SDS011;63444;48.148;11.542;2023-11-22T12:53:24;4.40;;;3.87;;
45011;SDS011;63444;48.148;11.542;2023-11-22T12:55:53;4.13;;;3.73;;
45011;SDS011;63444;48.148;11.542;2023-11-22T12:58:20;5.37;;;4.00;;
45011;SDS011;63444;48.148;11.542;2023-11-22T13:00:48;5.33;;;4.00;;
45011;SDS011;63444;48.148;11.542;2023-11-22T13:03:14;5.70;;;4.10;;
45011;SDS011;63444;48.148;11.542;2023-11-22T13:05:41;4.03;;;3.63;;
45011;SDS011;63444;48.148;11.542;2023-11-22T13:08:10;4.43;;;4.03;;
45011;SDS011;63444;48.148;11.542;2023-11-22T13:10:48;5.10;;;4.23;;
45011;SDS011;63444;48.148;11.542;2023-11-22T13:13:25;5.40;;;4.20;;
45011;SDS011;63444;48.148;11.542;2023-11-22T13:15:52;4.20;;;3.80;;
45011;SDS011;63444;48.148;11.542;2023-11-22T13:18:18;4.70;;;4.20;;
45011;SDS011;63444;48.148;11.542;2023-11-22T13:20:44;5.03;;;4.03;;
45011;SDS011;63444;48.148;11.542;2023-11-22T13:23:10;4.30;;;3.90;;
45011;SDS011;63444;48.148;11.542;2023-11-22T13:25:37;4.83;;;4.00;;
45011;SDS011;63444;48.148;11.542;2023-11-22T13:28:03;4.40;;;4.00;;
45011;SDS011;63444;48.148;11.542;2023-11-22T13:30:30;3.90;;;3.60;;
45011;SDS011;63444;48.148;11.542;2023-11-22T13:32:55;4.30;;;3.77;;
45011;SDS011;63444;48.148;11.542;2023-11-22T13:35:24;5.63;;;3.80;;
45011;SDS011;63444;48.148;11.542;2023-11-22T13:37:52;7.20;;;3.80;;
45011;SDS011;63444;48.148;11.542;2023-11-22T13:40:18;4.27;;;3.90;;
45011;SDS011;63444;48.148;11.542;2023-11-22T13:42:48;3.73;;;3.43;;
45011;SDS011;63444;48.148;11.542;2023-11-22T13:45:17;5.47;;;4.47;;
45011;SDS011;63444;48.148;11.542;2023-11-22T13:50:10;10.30;;;3.87;;
45011;SDS011;63444;48.148;11.542;2023-11-22T13:52:38;3.80;;;3.50;;
45011;SDS011;63444;48.148;11.542;2023-11-22T13:55:04;4.93;;;3.50;;
45011;SDS011;63444;48.148;11.542;2023-11-22T13:57:33;3.83;;;3.33;;
45011;SDS011;63444;48.148;11.542;2023-11-22T13:59:58;4.17;;;3.30;;
45011;SDS011;63444;48.148;11.542;2023-11-22T14:02:24;3.53;;;3.23;;
45011;SDS011;63444;48.148;11.542;2023-11-22T14:04:50;4.77;;;3.20;;
45011;SDS011;63444;48.148;11.542;2023-11-22T14:07:16;3.80;;;3.40;;
45011;SDS011;63444;48.148;11.542;2023-11-22T14:09:42;3.40;;;3.10;;
45011;SDS011;63444;48.148;11.542;2023-11-22T14:12:10;5.20;;;3.40;;
45011;SDS011;63444;48.148;11.542;2023-11-22T14:14:36;4.03;;;3.17;;
45011;SDS011;63444;48.148;11.542;2023-11-22T14:17:01;5.03;;;3.60;;
45011;SDS011;63444;48.148;11.542;2023-11-22T14:19:27;5.23;;;3.40;;
45011;SDS011;63444;48.148;11.542;2023-11-22T14:21:53;3.83;;;3.13;;
45011;SDS011;63444;48.148;11.542;2023-11-22T14:24:18;4.03;;;3.63;;
45011;SDS011;63444;48.148;11.542;2023-11-22T14:26:44;5.17;;;3.87;;
45011;SDS011;63444;48.148;11.542;2023-11-22T14:29:13;4.40;;;4.00;;
45011;SDS011;63444;48.148;11.542;2023-11-22T14:31:39;9.40;;;4.43;;
45011;SDS011;63444;48.148;11.542;2023-11-22T14:34:05;6.50;;;3.87;;
45011;SDS011;63444;48.148;11.542;2023-11-22T14:36:30;4.53;;;4.13;;
45011;SDS011;63444;48.148;11.542;2023-11-22T14:38:56;4.20;;;3.80;;
45011;SDS011;63444;48.148;11.542;2023-11-22T14:41:22;4.57;;;3.90;;
45011;SDS011;63444;48.148;11.542;2023-11-22T14:43:47;6.43;;;4.40;;